Merricourt, North Dakota
Current Conditions -  °F | °C
As of 1:56 PM on Friday 28 Nov 2014 (Local Time) from KJMS Reporting Station
Scattered Clouds Scattered Clouds  
Wind Chill: -2°   Ceiling: Unl
Heat Index: 13°   Visibility: 10mi
Dew Point:   Wind: 14mph
Humidity: 77%   Direction: 120°ESE
Pressure: 29.72"   Gusts: NA
Location:  46.2592°N, 98.7407°W
Report Text: KJMS 281956Z AUTO 12012KT 10SM FEW009 SCT075 M11/M14 A2972 RMK AO2 SLP099 T11061139
Loading
Personal Weather Stations






























Interactive Weather Map New forecast layout! Learn more

10-Day Weather Forecast

Advertisements
Track Severe Weather on mobile